KPDX/PDX METAR and TAF weather

Enter ICAO airport designator
Station Type Date Time Source
KPDX METAR 2019/10/23 12:18 UTC NOAA

KPDX 231218Z 08004KT 1/4SM R10R/3500V6000FT BR OVC002 08/07 A3046 RMK AO2 SFC VIS 1 1/2 T00780067


Station Type Date Time Source
KPDX Decoded METAR 2019/10/23 12:18 UTC NOAA

PORTLAND INTERNATIONAL AIRPORT, OR, United States (KPDX) 45-35N 122-36W 7M
Oct 23, 2019 - 08:18 AM EDT / 2019.10.23 1218 UTC
Wind: from the E (080 degrees) at 5 MPH (4 KT) (direction variable):0
Visibility: 1/4 mile(s):0
Sky conditions: overcast
Weather: mist
Temperature: 46.0 F (7.8 C)
Dew Point: 44.1 F (6.7 C)
Relative Humidity: 92%
Pressure (altimeter): 30.46 in. Hg (1031 hPa)
ob: KPDX 231218Z 08004KT 1/4SM R10R/3500V6000FT BR OVC002 08/07 A3046 RMK AO2 SFC VIS 1 1/2 T00780067
cycle: 12

Station Type Date Time Source
KPDX TAF 2019/10/23 12:22 UTC NOAA

TAF KPDX 231120Z 2312/2412 VRB03KT 6SM BR BCFG SCT003 OVC007
FM231700 33005KT P6SM SCT015
FM240200 07005KT P6SM SKC

Example: see airport list